Aérodrome :
LOGIN :

S'inscrire | Disclaimer

   EN    FR    IT 

 










Légende :    VFR   VFR Marginal   IFR   IFR Intensif   IFR Très Intensif
Visi : 
Plafond : 
>= 8 km
>= 3000ft
5 à 8 km
1000 à 3000 ft
1500m à 5 km
500 à 1000 ft
800 à 1500m
200 à 500 ft
< 800m
< 200 ft
Symboles :   Orages  Brouillard  Fortes neiges  Fortes précipitations  Vent > 20 kt
SIGMETs :   Divers  Orages  Givrage  Turbulence  Onde Orograph.  Cendres Volcan.







- Altitude de l'aérodrome : 1046 ft
- Code IATA : NUE


EDDN - Nuremberg

DERNIER METAR :
  • 191250Z 10010KT 070V140 CAVOK 22/M00 Q1028 NOSIG

METARs EXPIRÉS :
  • 191220Z 09014KT CAVOK 22/M00 Q1028 NOSIG
  • 191150Z 11012KT 070V150 CAVOK 22/01 Q1028 NOSIG
  • 191120Z 11011KT 080V140 CAVOK 21/00 Q1028 NOSIG
  • 191050Z 12013KT CAVOK 21/M00 Q1028 NOSIG
  • 191020Z 12014KT 070V150 CAVOK 21/00 Q1028 NOSIG

TAF TAF EDDN
Valide du 19 à 12h jusqu'au 20 à 12h UTC


191100Z 1912/2012 11012KT CAVOK
PROB30
TEMPO 1912/1915 12015G25KT
BECMG 1917/1919 07005KT
Pas de NOTAMs connus pour ce terrain.



MET'MAP, la Météo Aéronautique d'un coup d'oeil ! - Copyright ORBIFLY Décembre 2007 - Disclaimer

ORBIFLY MET'MAP TEAM :

Programmation & Développement : Alexandra Zaïnal
Conception & Développement : Baudouin d'Aumeries
Co-Programmation & Développement : Marc-Olivier Méhu
Soutien technique & logistique : Manuel Goepfert

Contact : metmap@orbifly.com




SOURCES & CREDITS :

   NOAA